Time;durP1;ratioP1;P1;durP2;ratioP2;P2;SDS_P1;SDS_P2;PMS_P1;PMS_P2;Temp;Humidity;BMP_temperature;BMP_pressure;BME280_temperature;BME280_humidity;BME280_pressure;Samples;Min_cycle;Max_cycle;Signal;HPM_P1;HPM_P2
2022/07/26 00:01:17;;;;;;;9.93;4.85;;;;;;;24.32;39.55;99697.44;5074143;28;20036;-68
2022/07/26 00:03:46;;;;;;;11.13;4.80;;;;;;;24.27;39.67;99698.00;5074368;28;20043;-68
2022/07/26 00:06:14;;;;;;;9.52;4.47;;;;;;;24.25;40.00;99692.75;5072743;28;20048;-68
2022/07/26 00:08:46;;;;;;;13.45;5.45;;;;;;;24.22;39.16;99687.72;5074144;28;20036;-68
2022/07/26 00:11:16;;;;;;;8.60;4.68;;;;;;;24.23;39.00;99683.09;5073992;28;20064;-70
2022/07/26 00:13:44;;;;;;;10.00;5.20;;;;;;;24.37;38.27;99690.38;5074138;28;20378;-69
2022/07/26 00:16:12;;;;;;;8.23;3.88;;;;;;;24.36;38.15;99687.84;5073586;28;20032;-69
2022/07/26 00:18:41;;;;;;;11.68;4.28;;;;;;;24.30;38.33;99683.16;5073897;28;20041;-70
2022/07/26 00:21:09;;;;;;;8.43;4.15;;;;;;;24.25;38.61;99683.75;5073848;28;20078;-68
2022/07/26 00:23:38;;;;;;;6.18;4.10;;;;;;;24.33;38.66;99678.19;5073750;28;20048;-70
2022/07/26 00:26:07;;;;;;;10.10;4.40;;;;;;;24.27;38.92;99679.78;5073403;28;20033;-69
2022/07/26 00:28:36;;;;;;;8.57;4.47;;;;;;;24.42;38.52;99682.47;5074056;28;20049;-70
2022/07/26 00:31:05;;;;;;;7.93;4.10;;;;;;;24.52;38.06;99676.69;5073592;28;20123;-69
2022/07/26 00:33:33;;;;;;;6.13;4.00;;;;;;;24.55;37.87;99676.28;5073456;28;20153;-70
2022/07/26 00:36:01;;;;;;;8.15;4.10;;;;;;;24.42;38.37;99668.00;5072095;28;20493;-70
2022/07/26 00:38:29;;;;;;;8.65;4.30;;;;;;;24.44;38.51;99665.94;5073587;28;20058;-69
2022/07/26 00:40:58;;;;;;;9.07;4.20;;;;;;;24.22;38.48;99668.63;5073672;28;20489;-69
2022/07/26 00:43:27;;;;;;;9.48;4.65;;;;;;;24.18;38.44;99658.31;5072333;28;20055;-70
2022/07/26 00:45:56;;;;;;;8.23;4.07;;;;;;;24.25;38.36;99654.59;5073515;28;20387;-69
2022/07/26 00:48:25;;;;;;;6.80;4.03;;;;;;;24.16;38.63;99653.03;5073747;28;20037;-70
2022/07/26 00:50:54;;;;;;;9.77;4.00;;;;;;;24.21;38.05;99647.00;5073229;28;20465;-70
2022/07/26 00:53:23;;;;;;;8.60;3.75;;;;;;;24.32;37.65;99646.53;5072847;28;20047;-70
2022/07/26 00:55:53;;;;;;;5.30;3.38;;;;;;;24.30;37.42;99645.84;5073279;28;20037;-68
2022/07/26 00:58:21;;;;;;;7.53;4.00;;;;;;;24.34;37.42;99646.34;5072971;28;20064;-69
2022/07/26 01:00:49;;;;;;;6.88;3.72;;;;;;;24.16;37.76;99644.03;5073362;28;20541;-69
2022/07/26 01:03:18;;;;;;;10.70;4.05;;;;;;;23.99;38.08;99646.16;5072992;28;20389;-70
2022/07/26 01:05:49;;;;;;;6.18;4.00;;;;;;;23.85;38.52;99655.25;5071921;28;20040;-70
2022/07/26 01:08:17;;;;;;;5.50;3.60;;;;;;;23.69;38.94;99659.03;5073197;28;20040;-70
2022/07/26 01:10:45;;;;;;;6.88;3.80;;;;;;;23.56;39.48;99651.50;5073334;28;20473;-70
2022/07/26 01:13:19;;;;;;;6.88;3.72;;;;;;;23.53;39.27;99642.88;5072846;28;20358;-67
2022/07/26 01:15:47;;;;;;;7.30;4.00;;;;;;;23.58;39.18;99640.44;5073219;28;20389;-67
2022/07/26 01:18:16;;;;;;;8.00;3.80;;;;;;;23.65;39.31;99627.78;5072702;28;20040;-67
2022/07/26 01:20:48;;;;;;;6.95;3.60;;;;;;;23.66;39.32;99632.19;5073357;28;20032;-66
2022/07/26 01:23:17;;;;;;;8.23;3.93;;;;;;;23.76;38.94;99627.28;5073010;28;20098;-68
2022/07/26 01:25:46;;;;;;;6.28;4.03;;;;;;;23.86;38.96;99621.50;5071876;28;20098;-69
2022/07/26 01:28:15;;;;;;;9.10;4.10;;;;;;;23.78;39.16;99624.34;5072936;28;20072;-71
2022/07/26 01:30:47;;;;;;;9.18;3.90;;;;;;;23.81;39.47;99624.81;5072935;28;20044;-70
2022/07/26 01:33:16;;;;;;;5.75;3.70;;;;;;;23.65;39.63;99615.00;5072841;28;20039;-72
2022/07/26 01:35:44;;;;;;;6.28;3.92;;;;;;;23.62;39.73;99619.97;5073077;28;20376;-72
2022/07/26 01:38:12;;;;;;;6.55;4.00;;;;;;;23.65;39.77;99608.72;5072571;28;20064;-72
2022/07/26 01:40:42;;;;;;;7.22;4.25;;;;;;;23.53;39.88;99608.31;5073028;28;20044;-70
2022/07/26 01:43:10;;;;;;;7.30;4.30;;;;;;;23.49;40.08;99606.19;5072433;28;20080;-69
2022/07/26 01:45:38;;;;;;;7.32;3.65;;;;;;;23.55;40.01;99608.16;5072994;28;20040;-68
2022/07/26 01:48:07;;;;;;;7.00;4.07;;;;;;;23.58;39.93;99605.03;5072820;28;20040;-69
2022/07/26 01:50:35;;;;;;;6.90;4.25;;;;;;;23.59;39.97;99594.00;5072755;28;20355;-67
2022/07/26 01:53:04;;;;;;;9.90;4.60;;;;;;;23.45;40.44;99591.25;5072761;28;20037;-69
2022/07/26 01:55:33;;;;;;;6.80;4.18;;;;;;;23.40;40.59;99592.69;5072728;28;20040;-69
2022/07/26 01:58:02;;;;;;;9.80;4.00;;;;;;;23.42;40.45;99593.34;5072583;28;20048;-70
2022/07/26 02:00:31;;;;;;;10.13;4.10;;;;;;;23.37;40.69;99590.34;5076185;28;20044;-70
2022/07/26 02:02:59;;;;;;;9.48;4.18;;;;;;;23.24;40.89;99590.16;5076549;28;20078;-70
2022/07/26 02:05:27;;;;;;;5.90;3.90;;;;;;;23.21;40.92;99589.72;5076352;28;20388;-70
2022/07/26 02:07:56;;;;;;;9.13;4.60;;;;;;;23.21;41.18;99593.28;5076350;28;20037;-69
2022/07/26 02:10:59;;;;;;;7.75;4.53;;;;;;;23.12;41.47;99591.69;5076027;28;20040;-70
2022/07/26 02:13:14;;;;;;;9.02;4.30;;;;;;;23.03;41.59;99584.66;5076215;28;20049;-70
2022/07/26 02:15:42;;;;;;;8.88;4.15;;;;;;;22.92;41.87;99594.16;5076202;28;20039;-69
2022/07/26 02:18:10;;;;;;;7.40;4.40;;;;;;;22.91;41.92;99597.91;5076175;28;20519;-70
2022/07/26 02:20:39;;;;;;;8.65;4.38;;;;;;;22.83;42.24;99590.63;5076085;28;20047;-70
2022/07/26 02:23:07;;;;;;;10.45;4.90;;;;;;;22.76;42.58;99597.84;5075988;28;20044;-69
2022/07/26 02:25:35;;;;;;;7.20;4.20;;;;;;;22.70;42.84;99595.91;5076265;28;20045;-68
2022/07/26 02:28:03;;;;;;;7.47;5.07;;;;;;;22.74;42.63;99586.31;5075877;28;20060;-69
2022/07/26 02:30:33;;;;;;;5.85;4.50;;;;;;;22.77;42.63;99594.09;5075970;28;20032;-69
2022/07/26 02:33:01;;;;;;;8.85;5.03;;;;;;;22.82;42.58;99594.38;5076065;28;20041;-69
2022/07/26 02:35:30;;;;;;;9.00;4.72;;;;;;;22.89;42.36;99590.97;5075883;28;20043;-70
2022/07/26 02:38:02;;;;;;;7.72;4.63;;;;;;;22.81;42.56;99606.31;5076076;28;20040;-70
2022/07/26 02:40:31;;;;;;;9.00;5.18;;;;;;;22.68;43.01;99603.41;5075601;28;20425;-68
2022/07/26 02:42:59;;;;;;;8.73;4.50;;;;;;;22.75;43.03;99601.59;5075966;28;20041;-70
2022/07/26 02:45:28;;;;;;;9.32;4.93;;;;;;;22.74;42.69;99605.34;5075703;28;20454;-70
2022/07/26 02:47:57;;;;;;;7.93;4.85;;;;;;;22.75;43.08;99608.91;5075564;28;20089;-71
2022/07/26 02:50:27;;;;;;;11.10;6.00;;;;;;;22.61;43.06;99605.16;5075609;28;20033;-71
2022/07/26 02:52:56;;;;;;;11.68;5.50;;;;;;;22.53;43.30;99608.78;5076090;28;20039;-70
2022/07/26 02:55:26;;;;;;;11.88;5.60;;;;;;;22.59;43.47;99601.78;5075424;28;20040;-70
2022/07/26 02:57:55;;;;;;;11.38;5.60;;;;;;;22.66;43.42;99605.44;5075784;28;20124;-71
2022/07/26 03:00:25;;;;;;;10.05;5.65;;;;;;;22.57;43.81;99598.38;5075076;28;20055;-71
2022/07/26 03:02:53;;;;;;;10.18;5.65;;;;;;;22.54;43.94;99604.22;5074516;28;20055;-70
2022/07/26 03:05:23;;;;;;;8.05;5.05;;;;;;;22.63;44.30;99608.53;5074188;28;20377;-71
2022/07/26 03:07:52;;;;;;;6.78;4.60;;;;;;;22.69;45.10;99602.38;5075472;28;20060;-70
2022/07/26 03:10:20;;;;;;;8.85;4.90;;;;;;;22.22;46.28;99598.06;5074934;28;20041;-70
2022/07/26 03:12:48;;;;;;;10.68;4.70;;;;;;;22.24;46.39;99597.88;5075110;28;20068;-69
2022/07/26 03:15:17;;;;;;;8.70;4.85;;;;;;;22.37;46.12;99595.34;5075016;28;20040;-71
2022/07/26 03:17:45;;;;;;;9.38;4.97;;;;;;;22.12;47.21;99594.75;5073980;28;20055;-71
2022/07/26 03:20:13;;;;;;;8.60;4.85;;;;;;;22.23;47.12;99596.19;5074725;28;20127;-70
2022/07/26 03:22:43;;;;;;;9.80;4.82;;;;;;;22.21;47.40;99599.09;5074946;28;20036;-70
2022/07/26 03:25:11;;;;;;;8.35;5.05;;;;;;;22.32;47.39;99597.78;5075068;28;20067;-70
2022/07/26 03:27:39;;;;;;;8.48;5.00;;;;;;;22.30;47.51;99604.44;5073333;28;20544;-70
2022/07/26 03:30:09;;;;;;;9.63;4.95;;;;;;;22.27;47.60;99603.75;5075006;28;20036;-70
2022/07/26 03:32:38;;;;;;;6.97;4.70;;;;;;;22.40;47.42;99599.59;5073840;28;20066;-70
2022/07/26 03:35:07;;;;;;;11.27;5.18;;;;;;;22.50;46.92;99602.91;5074690;28;20068;-70
2022/07/26 03:37:35;;;;;;;12.43;5.18;;;;;;;22.48;47.03;99607.66;5074499;28;20479;-70
2022/07/26 03:40:15;;;;;;;11.07;5.22;;;;;;;22.48;47.08;99602.22;5074431;28;20044;-70
2022/07/26 03:42:43;;;;;;;10.25;5.03;;;;;;;22.38;47.52;99599.75;5074709;28;20083;-70
2022/07/26 03:45:13;;;;;;;10.68;5.70;;;;;;;22.51;47.25;99602.72;5073049;28;20138;-71
2022/07/26 03:47:41;;;;;;;9.88;5.53;;;;;;;22.59;46.83;99596.34;5074688;28;20218;-70
2022/07/26 03:50:12;;;;;;;10.77;5.47;;;;;;;22.61;47.04;99591.56;5072987;28;20497;-70
2022/07/26 03:52:40;;;;;;;9.60;5.38;;;;;;;22.68;46.69;99600.69;5073654;28;20390;-70
2022/07/26 03:57:53;;;;;;;13.65;5.80;;;;;;;23.28;45.61;99588.78;5074274;28;20101;-70
2022/07/26 04:00:21;;;;;;;13.68;6.13;;;;;;;23.68;44.11;99586.56;5073001;28;20050;-70
2022/07/26 04:02:49;;;;;;;10.98;5.80;;;;;;;23.66;44.24;99583.19;5074069;28;20040;-68
2022/07/26 04:05:17;;;;;;;9.63;5.75;;;;;;;23.93;43.19;99590.59;5074130;28;20380;-69
2022/07/26 04:07:50;;;;;;;16.42;6.65;;;;;;;24.50;42.27;99588.78;5074243;28;20048;-69
2022/07/26 04:10:21;;;;;;;15.18;6.82;;;;;;;25.35;40.20;99585.75;5073613;28;20496;-70
2022/07/26 04:12:49;;;;;;;11.68;6.05;;;;;;;25.20;40.75;99574.16;5073914;28;20087;-69
2022/07/26 04:15:20;;;;;;;11.77;6.85;;;;;;;25.37;40.44;99566.44;5073592;28;20094;-70
2022/07/26 04:17:48;;;;;;;13.18;6.97;;;;;;;26.40;38.37;99561.63;5074061;28;20051;-70
2022/07/26 04:20:16;;;;;;;14.32;6.78;;;;;;;27.05;37.65;99570.81;5073582;28;20477;-70
2022/07/26 04:22:45;;;;;;;10.90;5.78;;;;;;;27.07;37.91;99571.41;5073445;28;20119;-70
2022/07/26 04:25:13;;;;;;;12.68;6.25;;;;;;;27.64;37.17;99564.22;5073750;28;20070;-70
2022/07/26 04:27:41;;;;;;;10.98;6.20;;;;;;;28.00;36.16;99562.75;5073717;28;20488;-70
2022/07/26 04:30:10;;;;;;;19.98;7.20;;;;;;;28.34;34.87;99567.78;5072663;28;20135;-71
2022/07/26 04:32:44;;;;;;;13.90;6.70;;;;;;;28.04;35.77;99566.72;5073786;28;20040;-71
2022/07/26 04:35:15;;;;;;;16.67;7.30;;;;;;;27.77;35.85;99569.63;5073553;28;20067;-69
2022/07/26 04:37:44;;;;;;;15.20;7.38;;;;;;;28.10;35.09;99565.84;5073530;28;20068;-69
2022/07/26 04:40:17;;;;;;;14.25;6.95;;;;;;;26.94;37.52;99579.66;5073385;28;20119;-69
2022/07/26 04:42:49;;;;;;;16.17;7.20;;;;;;;27.64;36.21;99575.19;5073745;28;20064;-70
2022/07/26 04:45:17;;;;;;;11.70;7.20;;;;;;;27.69;36.10;99583.59;5073297;28;20044;-69
2022/07/26 04:47:49;;;;;;;13.80;7.25;;;;;;;26.34;38.64;99592.50;5073499;28;20040;-69
2022/07/26 04:50:18;;;;;;;13.25;7.50;;;;;;;25.85;39.53;99612.84;5073158;28;20043;-70
2022/07/26 04:52:46;;;;;;;15.07;7.05;;;;;;;25.27;40.71;99642.41;5071853;28;20049;-68
2022/07/26 04:55:15;;;;;;;10.68;6.38;;;;;;;24.70;41.73;99646.19;5072046;28;20059;-67
2022/07/26 04:57:43;;;;;;;10.05;6.35;;;;;;;24.59;42.21;99649.47;5073429;28;20044;-67
2022/07/26 05:00:20;;;;;;;9.60;6.38;;;;;;;24.47;43.21;99643.72;5073309;28;20036;-67
2022/07/26 05:02:54;;;;;;;15.07;7.10;;;;;;;24.42;43.55;99606.16;5073726;28;20484;-65
2022/07/26 05:05:24;;;;;;;13.43;6.50;;;;;;;24.71;43.02;99598.81;5071645;28;20087;-66
2022/07/26 05:07:54;;;;;;;10.05;6.07;;;;;;;24.66;43.23;99623.09;5073046;28;20106;-66
2022/07/26 05:10:30;;;;;;;10.60;6.90;;;;;;;24.69;43.53;99639.91;5071814;28;20485;-66
2022/07/26 05:12:58;;;;;;;15.38;6.72;;;;;;;25.35;41.99;99628.59;5073337;28;20038;-66
2022/07/26 05:15:27;;;;;;;12.20;6.53;;;;;;;26.45;39.84;99630.22;5072215;28;20040;-65
2022/07/26 05:18:05;;;;;;;13.77;6.63;;;;;;;25.94;40.36;99633.44;5071985;28;20052;-66
2022/07/26 05:20:35;;;;;;;14.25;6.20;;;;;;;25.75;40.88;99656.09;5072934;28;20041;-67
2022/07/26 05:23:04;;;;;;;12.55;6.38;;;;;;;26.23;40.67;99632.25;5073030;28;20045;-67
2022/07/26 05:25:32;;;;;;;15.25;6.00;;;;;;;27.39;38.64;99617.00;5072734;28;20342;-67
2022/07/26 05:28:00;;;;;;;16.67;6.35;;;;;;;28.40;37.02;99620.91;5071379;28;20503;-67
2022/07/26 05:30:29;;;;;;;17.17;6.13;;;;;;;29.09;36.15;99622.59;5070985;28;20497;-67
2022/07/26 05:32:57;;;;;;;15.13;5.68;;;;;;;29.90;34.47;99615.91;5072767;28;20063;-67
2022/07/26 05:35:27;;;;;;;10.52;6.53;;;;;;;30.13;31.90;99621.53;5075756;28;20476;-67
2022/07/26 05:37:55;;;;;;;12.32;6.15;;;;;;;30.30;33.38;99626.31;5075542;28;20396;-67
2022/07/26 05:40:23;;;;;;;13.63;5.95;;;;;;;30.71;31.33;99623.56;5076596;28;20497;-68
2022/07/26 05:42:51;;;;;;;8.35;5.60;;;;;;;30.71;31.81;99609.81;5076676;28;20044;-68
2022/07/26 05:45:19;;;;;;;12.00;5.95;;;;;;;30.63;31.52;99621.13;5076434;28;20048;-68
2022/07/26 05:47:50;;;;;;;12.57;6.03;;;;;;;30.25;31.32;99616.03;5077043;28;20351;-68
2022/07/26 05:50:18;;;;;;;9.98;6.05;;;;;;;31.14;30.74;99614.06;5076745;28;20040;-67
2022/07/26 05:52:48;;;;;;;12.30;6.00;;;;;;;31.93;29.38;99622.63;5076492;28;20047;-69
2022/07/26 05:55:16;;;;;;;11.05;5.65;;;;;;;32.38;28.76;99625.44;5076454;28;20038;-68
2022/07/26 05:57:46;;;;;;;12.30;5.70;;;;;;;32.68;28.22;99624.25;5076786;28;20040;-67
2022/07/26 06:00:17;;;;;;;12.65;5.78;;;;;;;32.87;27.96;99617.41;5075490;28;20059;-67
2022/07/26 06:02:45;;;;;;;14.77;5.45;;;;;;;33.01;27.17;99623.44;5076259;28;20385;-67
2022/07/26 06:05:14;;;;;;;21.30;6.03;;;;;;;31.93;29.42;99632.84;5076359;28;20532;-67
2022/07/26 06:07:44;;;;;;;10.70;5.65;;;;;;;32.42;29.16;99634.88;5075957;28;20028;-68
2022/07/26 06:10:13;;;;;;;12.63;5.05;;;;;;;32.60;28.99;99632.94;5075025;28;20052;-67
2022/07/26 06:12:41;;;;;;;8.85;4.97;;;;;;;32.33;29.33;99628.13;5075908;28;20131;-66
2022/07/26 06:15:10;;;;;;;12.50;5.25;;;;;;;32.11;31.36;99616.91;5076058;28;20037;-69
2022/07/26 06:17:43;;;;;;;9.38;5.15;;;;;;;31.89;31.69;99627.00;5075823;28;20052;-65
2022/07/26 06:20:11;;;;;;;10.93;5.30;;;;;;;31.21;33.61;99625.84;5075902;28;20041;-66
2022/07/26 06:22:40;;;;;;;11.82;5.65;;;;;;;32.43;31.70;99622.78;5075953;28;20040;-66
2022/07/26 06:25:08;;;;;;;10.48;5.70;;;;;;;31.75;33.89;99614.53;5075637;28;20047;-65
2022/07/26 06:27:38;;;;;;;12.13;5.85;;;;;;;31.45;35.23;99615.59;5074032;28;20615;-65
2022/07/26 06:30:08;;;;;;;9.93;6.35;;;;;;;31.53;35.32;99611.63;5074815;28;20049;-64
2022/07/26 06:32:36;;;;;;;9.65;6.03;;;;;;;30.43;38.01;99620.63;5075564;28;20072;-64
2022/07/26 06:35:05;;;;;;;8.90;5.65;;;;;;;29.99;39.01;99609.00;5074509;28;20516;-66
2022/07/26 06:37:36;;;;;;;9.50;6.10;;;;;;;30.90;37.54;99613.28;5075612;28;20105;-67
2022/07/26 06:40:05;;;;;;;11.80;6.43;;;;;;;30.99;38.34;99620.09;5075664;28;20041;-65
2022/07/26 06:42:35;;;;;;;10.65;6.15;;;;;;;31.13;37.97;99608.81;5075794;28;20135;-66
2022/07/26 06:45:06;;;;;;;7.68;5.43;;;;;;;30.93;38.65;99606.44;5074981;28;20401;-67
2022/07/26 06:47:35;;;;;;;12.85;6.22;;;;;;;31.60;37.33;99617.84;5075291;28;20567;-67
2022/07/26 06:50:03;;;;;;;11.18;5.75;;;;;;;31.97;36.85;99601.78;5075646;28;20041;-67
2022/07/26 06:52:32;;;;;;;10.05;6.32;;;;;;;31.49;38.08;99599.41;5075114;28;20068;-67
2022/07/26 06:55:01;;;;;;;10.98;6.70;;;;;;;31.51;37.80;99603.59;5075371;28;20051;-68
2022/07/26 06:57:29;;;;;;;9.95;6.53;;;;;;;30.41;40.04;99596.09;5073646;28;20058;-69
2022/07/26 06:59:57;;;;;;;11.07;6.28;;;;;;;30.50;40.50;99596.59;5075254;28;20049;-68
2022/07/26 07:02:27;;;;;;;10.98;6.00;;;;;;;30.97;39.39;99604.88;5074869;28;20481;-68
2022/07/26 07:04:55;;;;;;;11.88;6.80;;;;;;;30.98;39.08;99592.78;5075232;28;20405;-68
2022/07/26 07:07:23;;;;;;;9.30;6.00;;;;;;;29.70;41.43;99599.69;5075068;28;20425;-69
2022/07/26 07:09:55;;;;;;;12.07;6.57;;;;;;;29.25;42.52;99593.69;5075107;28;20044;-68
2022/07/26 07:12:25;;;;;;;10.80;6.45;;;;;;;29.38;42.85;99593.53;5074962;28;20102;-68
2022/07/26 07:14:53;;;;;;;11.32;6.25;;;;;;;29.31;42.99;99582.63;5075085;28;20048;-68
2022/07/26 07:17:21;;;;;;;12.18;6.25;;;;;;;29.37;43.57;99580.88;5074873;28;20044;-69
2022/07/26 07:19:51;;;;;;;12.75;6.70;;;;;;;29.87;41.43;99588.88;5075025;28;20037;-68
2022/07/26 07:22:19;;;;;;;11.00;6.60;;;;;;;30.09;40.98;99579.03;5075090;28;20065;-68
2022/07/26 07:24:47;;;;;;;12.00;6.68;;;;;;;30.10;41.12;99575.22;5073462;28;20052;-68
2022/07/26 07:27:16;;;;;;;7.18;6.07;;;;;;;30.18;39.50;99572.13;5074841;28;20068;-68
2022/07/26 07:29:44;;;;;;;9.38;6.32;;;;;;;30.28;39.81;99576.22;5074915;28;20044;-68
2022/07/26 07:32:12;;;;;;;9.90;6.55;;;;;;;30.03;40.21;99573.63;5073461;28;20489;-67
2022/07/26 07:34:46;;;;;;;11.13;6.68;;;;;;;30.07;40.19;99578.44;5074758;28;20375;-67
2022/07/26 07:37:16;;;;;;;9.00;6.03;;;;;;;30.14;40.35;99583.84;5074403;28;20051;-67
2022/07/26 07:39:47;;;;;;;11.40;6.68;;;;;;;29.97;40.92;99597.41;5074442;28;20375;-68
2022/07/26 07:42:16;;;;;;;11.05;6.53;;;;;;;30.08;40.53;99604.03;5074733;28;20047;-68
2022/07/26 07:44:45;;;;;;;10.15;6.57;;;;;;;30.09;40.74;99597.47;5074278;28;20139;-68
2022/07/26 07:47:13;;;;;;;10.98;6.38;;;;;;;29.96;40.97;99594.88;5074469;28;20049;-68
2022/07/26 07:49:42;;;;;;;9.10;6.10;;;;;;;29.87;41.28;99592.47;5074096;28;20047;-67
2022/07/26 07:52:10;;;;;;;9.57;6.25;;;;;;;29.76;41.73;99587.78;5074425;28;20047;-69
2022/07/26 07:54:40;;;;;;;9.77;6.43;;;;;;;30.03;41.84;99584.63;5074150;28;20123;-67
2022/07/26 07:57:09;;;;;;;14.15;5.95;;;;;;;29.88;42.37;99590.56;5073402;28;20044;-67
2022/07/26 07:59:38;;;;;;;13.48;6.07;;;;;;;29.79;43.36;99578.22;5073862;28;20079;-69
2022/07/26 08:02:08;;;;;;;10.00;6.38;;;;;;;29.61;43.55;99587.34;5073887;28;20044;-68
2022/07/26 08:04:36;;;;;;;8.13;5.25;;;;;;;29.76;43.30;99584.19;5072673;28;20064;-69
2022/07/26 08:07:04;;;;;;;10.38;6.03;;;;;;;29.91;42.69;99595.56;5074063;28;20041;-69
2022/07/26 08:09:32;;;;;;;8.40;5.20;;;;;;;29.81;43.21;99598.88;5072328;28;20049;-69
2022/07/26 08:12:02;;;;;;;8.98;5.10;;;;;;;29.38;43.99;99596.28;5074086;28;20041;-69
2022/07/26 08:14:32;;;;;;;10.20;6.22;;;;;;;29.73;44.32;99601.16;5072386;28;20094;-67
2022/07/26 08:17:00;;;;;;;12.10;5.90;;;;;;;30.17;43.09;99603.47;5073704;28;20516;-69
2022/07/26 08:19:29;;;;;;;8.27;5.70;;;;;;;30.36;42.54;99601.47;5072371;28;20048;-69
2022/07/26 08:22:10;;;;;;;11.68;5.70;;;;;;;29.59;44.76;99617.78;5072698;28;20040;-69
2022/07/26 08:24:39;;;;;;;13.90;5.57;;;;;;;29.30;45.53;99618.56;5073546;28;20045;-69
2022/07/26 08:27:08;;;;;;;10.38;5.93;;;;;;;29.16;46.70;99617.03;5072065;28;20063;-70
2022/07/26 08:29:36;;;;;;;6.68;5.03;;;;;;;29.22;46.52;99602.38;5072335;28;20481;-69
2022/07/26 08:32:06;;;;;;;10.57;5.32;;;;;;;29.14;46.61;99597.19;5073711;28;20041;-68
2022/07/26 08:34:34;;;;;;;10.40;5.45;;;;;;;29.50;46.10;99591.72;5073039;28;20091;-69
2022/07/26 08:37:03;;;;;;;11.75;5.40;;;;;;;29.94;46.52;99595.13;5072174;28;20127;-68
2022/07/26 08:39:44;;;;;;;10.70;5.20;;;;;;;29.55;46.93;99600.09;5072913;28;20091;-69
2022/07/26 08:42:15;;;;;;;14.20;5.47;;;;;;;29.97;46.00;99591.91;5072301;28;20071;-68
2022/07/26 08:44:44;;;;;;;10.57;5.45;;;;;;;29.86;46.07;99584.47;5072837;28;20067;-68
2022/07/26 08:47:13;;;;;;;12.63;5.28;;;;;;;29.49;46.87;99595.53;5073048;28;20051;-69
2022/07/26 08:49:42;;;;;;;11.38;5.30;;;;;;;29.42;46.96;99597.47;5072987;28;20041;-69
2022/07/26 08:52:11;;;;;;;8.23;5.38;;;;;;;29.28;47.76;99593.22;5071909;28;20048;-69
2022/07/26 08:54:42;;;;;;;9.55;5.50;;;;;;;29.36;47.10;99601.16;5073056;28;20046;-69
2022/07/26 08:57:11;;;;;;;8.40;5.25;;;;;;;29.82;47.32;99594.22;5072146;28;20048;-69
2022/07/26 08:59:41;;;;;;;8.98;5.50;;;;;;;30.38;45.36;99590.22;5071350;28;20048;-67
2022/07/26 09:02:11;;;;;;;9.80;5.65;;;;;;;29.98;45.27;99585.31;5072091;28;20053;-68
2022/07/26 09:04:41;;;;;;;8.15;5.68;;;;;;;30.10;45.30;99591.72;5071711;28;20142;-69
2022/07/26 09:07:14;;;;;;;8.65;5.50;;;;;;;30.27;44.44;99599.28;5073261;28;20048;-69
2022/07/26 09:09:58;;;;;;;10.20;5.70;;;;;;;30.18;43.59;99615.31;5071670;28;20123;-69
2022/07/26 09:12:28;;;;;;;10.98;6.28;;;;;;;29.93;44.56;99616.28;5073199;28;20102;-69
2022/07/26 09:14:58;;;;;;;12.10;6.60;;;;;;;29.67;44.73;99624.06;5072906;28;20442;-69
2022/07/26 09:17:39;;;;;;;9.98;5.88;;;;;;;29.49;45.55;99642.22;5071489;28;20460;-67
2022/07/26 09:20:10;;;;;;;13.65;6.13;;;;;;;29.74;44.37;99613.81;5071456;28;20143;-68
2022/07/26 09:22:55;;;;;;;7.65;5.82;;;;;;;29.51;45.40;99614.53;5071145;28;20049;-69
2022/07/26 09:25:24;;;;;;;9.43;7.10;;;;;;;29.64;44.44;99625.38;5072695;28;20044;-69
2022/07/26 09:27:53;;;;;;;9.23;5.97;;;;;;;29.53;45.03;99642.59;5071008;28;20501;-68
2022/07/26 09:30:23;;;;;;;8.02;5.47;;;;;;;29.51;44.88;99648.34;5072990;28;20036;-69
2022/07/26 09:33:00;;;;;;;8.88;6.15;;;;;;;29.30;45.41;99648.75;5071106;28;20045;-69
2022/07/26 09:35:30;;;;;;;10.38;6.03;;;;;;;29.21;45.11;99661.97;5071794;28;20053;-68
2022/07/26 09:38:18;;;;;;;9.25;6.13;;;;;;;28.96;45.62;99667.50;5071658;28;20049;-69
2022/07/26 09:40:47;;;;;;;8.00;6.13;;;;;;;29.02;45.47;99680.31;5072537;28;20137;-68
2022/07/26 09:43:19;;;;;;;8.43;6.28;;;;;;;28.74;45.96;99696.38;5071872;28;20044;-68
2022/07/26 09:46:09;;;;;;;10.63;6.55;;;;;;;28.46;46.18;99707.75;5071139;28;20040;-68
2022/07/26 09:48:38;;;;;;;9.57;6.45;;;;;;;28.22;47.20;99731.31;5071561;28;20060;-69
2022/07/26 09:51:37;;;;;;;9.05;6.40;;;;;;;28.19;47.54;99731.75;5072657;28;20040;-68
2022/07/26 09:54:06;;;;;;;10.57;6.47;;;;;;;28.08;47.81;99737.91;5072887;28;20456;-68
2022/07/26 09:56:44;;;;;;;10.38;6.10;;;;;;;28.13;48.21;99749.91;5072472;28;20045;-67
2022/07/26 09:59:14;;;;;;;8.93;5.90;;;;;;;27.83;50.44;99746.88;5072536;28;20045;-67
2022/07/26 10:01:45;;;;;;;12.75;5.85;;;;;;;27.75;51.69;99746.28;5072336;28;20044;-68
2022/07/26 10:04:14;;;;;;;9.30;5.45;;;;;;;27.46;54.72;99709.25;5071590;28;20127;-69
2022/07/26 10:06:43;;;;;;;9.45;5.80;;;;;;;27.30;55.36;99722.31;5072217;28;20051;-67
2022/07/26 10:09:12;;;;;;;12.77;5.85;;;;;;;26.92;57.30;99745.91;5072446;28;20493;-68
2022/07/26 10:11:44;;;;;;;10.70;5.93;;;;;;;26.04;64.39;99772.41;5071998;28;20040;-68
2022/07/26 10:14:35;;;;;;;9.38;5.13;;;;;;;25.23;77.43;99766.69;5072543;28;20044;-69
2022/07/26 10:17:45;;;;;;;10.35;6.18;;;;;;;24.95;83.45;99748.38;5072415;28;20378;-68
2022/07/26 10:20:41;;;;;;;9.38;5.63;;;;;;;24.58;91.95;99697.69;5072787;28;20052;-68
2022/07/26 10:23:42;;;;;;;10.68;6.38;;;;;;;24.34;100.00;99674.44;5075034;28;20048;-68
2022/07/26 10:26:41;;;;;;;13.95;6.38;;;;;;;23.87;100.00;99670.34;5075980;28;20048;-68
2022/07/26 10:29:26;;;;;;;10.02;7.10;;;;;;;23.77;100.00;99699.75;5076035;28;20489;-68
2022/07/26 10:32:18;;;;;;;14.25;7.55;;;;;;;23.77;100.00;99721.53;5075613;28;20036;-68
2022/07/26 10:34:48;;;;;;;11.37;7.47;;;;;;;23.80;100.00;99731.19;5074285;28;20505;-68
2022/07/26 10:37:28;;;;;;;17.98;6.65;;;;;;;24.01;100.00;99744.88;5076146;28;20046;-68
2022/07/26 10:40:21;;;;;;;11.30;7.35;;;;;;;24.42;100.00;99750.63;5075487;28;20049;-68
2022/07/26 10:42:49;;;;;;;12.27;8.10;;;;;;;24.35;100.00;99757.88;5073983;28;20055;-68
2022/07/26 10:45:20;;;;;;;9.75;7.88;;;;;;;24.20;100.00;99765.22;5074448;28;20045;-68
2022/07/26 10:48:12;;;;;;;9.43;7.43;;;;;;;23.85;100.00;99762.28;5074432;28;20052;-68
2022/07/26 10:50:43;;;;;;;9.40;7.90;;;;;;;24.20;100.00;99767.94;5073933;28;20386;-69
2022/07/26 10:53:18;;;;;;;12.95;8.05;;;;;;;24.22;100.00;99774.03;5074074;28;20049;-68
2022/07/26 10:55:48;;;;;;;12.45;7.95;;;;;;;24.53;100.00;99793.72;5075542;28;20049;-69
2022/07/26 10:58:17;;;;;;;13.18;8.23;;;;;;;24.27;100.00;99790.66;5075517;28;20464;-67
2022/07/26 11:00:59;;;;;;;9.98;7.45;;;;;;;24.35;100.00;99779.69;5074896;28;20044;-68
2022/07/26 11:03:36;;;;;;;9.40;7.15;;;;;;;24.37;100.00;99763.97;5073877;28;20156;-68
2022/07/26 11:06:11;;;;;;;11.25;7.40;;;;;;;24.15;100.00;99759.50;5074190;28;20071;-68
2022/07/26 11:08:40;;;;;;;12.88;7.85;;;;;;;24.13;100.00;99780.66;5075093;28;20055;-69
2022/07/26 11:11:26;;;;;;;10.38;7.57;;;;;;;24.28;100.00;99795.06;5075452;28;20078;-68
2022/07/26 11:14:05;;;;;;;11.77;8.70;;;;;;;24.30;100.00;99787.53;5075064;28;20068;-68
2022/07/26 11:16:37;;;;;;;12.75;8.02;;;;;;;24.52;100.00;99794.75;5075492;28;20044;-68
2022/07/26 11:19:15;;;;;;;11.73;8.23;;;;;;;24.43;100.00;99801.38;5075556;28;20128;-68
2022/07/26 11:21:44;;;;;;;10.95;8.05;;;;;;;24.62;100.00;99791.72;5074744;28;20280;-68
2022/07/26 11:24:14;;;;;;;11.80;8.40;;;;;;;24.57;100.00;99801.50;5073659;28;20071;-69
2022/07/26 11:26:43;;;;;;;11.45;8.93;;;;;;;24.44;100.00;99804.94;5073144;28;20044;-68
2022/07/26 11:29:12;;;;;;;12.75;9.02;;;;;;;24.46;100.00;99789.22;5075163;28;20059;-68
2022/07/26 11:31:45;;;;;;;;;;;;;;;24.61;100.00;99783.72;5074957;28;20076;-68
2022/07/26 11:34:28;;;;;;;11.20;8.80;;;;;;;24.51;100.00;99778.56;5073521;28;19927;-68
2022/07/26 11:36:57;;;;;;;14.43;7.65;;;;;;;24.35;100.00;99776.97;5074463;28;20128;-68
2022/07/26 11:39:29;;;;;;;12.30;8.85;;;;;;;24.28;100.00;99774.13;5073367;28;20091;-68
2022/07/26 11:41:59;;;;;;;12.13;8.00;;;;;;;24.25;100.00;99779.13;5074645;28;20417;-68
2022/07/26 11:44:27;;;;;;;12.82;8.60;;;;;;;24.24;100.00;99771.97;5074646;28;20044;-68
2022/07/26 11:46:56;;;;;;;13.65;8.55;;;;;;;24.18;100.00;99775.47;5074437;28;20040;-68
2022/07/26 11:49:26;;;;;;;12.30;8.50;;;;;;;24.18;100.00;99776.31;5072989;28;20110;-68